sensor_id;sensor_type;location;lat;lon;timestamp;temperature;humidity
5150;DHT22;2593;52.466;13.436;2023-04-21T00:01:22;11.80;99.90
5150;DHT22;2593;52.466;13.436;2023-04-21T00:03:48;11.70;99.90
5150;DHT22;2593;52.466;13.436;2023-04-21T00:06:15;11.70;99.90
5150;DHT22;2593;52.466;13.436;2023-04-21T00:08:47;11.60;99.90
5150;DHT22;2593;52.466;13.436;2023-04-21T00:11:12;11.60;99.90
5150;DHT22;2593;52.466;13.436;2023-04-21T00:13:39;11.50;99.90
5150;DHT22;2593;52.466;13.436;2023-04-21T00:16:05;11.50;99.90
5150;DHT22;2593;52.466;13.436;2023-04-21T00:18:31;11.50;99.90
5150;DHT22;2593;52.466;13.436;2023-04-21T00:20:56;11.40;99.90
5150;DHT22;2593;52.466;13.436;2023-04-21T00:23:22;11.30;99.90
5150;DHT22;2593;52.466;13.436;2023-04-21T00:25:48;11.30;99.90
5150;DHT22;2593;52.466;13.436;2023-04-21T00:28:13;11.20;99.90
5150;DHT22;2593;52.466;13.436;2023-04-21T00:30:39;11.20;99.90
5150;DHT22;2593;52.466;13.436;2023-04-21T00:33:04;11.20;99.90
5150;DHT22;2593;52.466;13.436;2023-04-21T00:35:30;11.20;99.90
5150;DHT22;2593;52.466;13.436;2023-04-21T00:37:56;11.10;99.90
5150;DHT22;2593;52.466;13.436;2023-04-21T00:40:21;11.00;99.90
5150;DHT22;2593;52.466;13.436;2023-04-21T00:42:47;11.00;99.90
5150;DHT22;2593;52.466;13.436;2023-04-21T00:45:13;10.90;99.90
5150;DHT22;2593;52.466;13.436;2023-04-21T00:47:42;10.90;99.90
5150;DHT22;2593;52.466;13.436;2023-04-21T00:50:09;11.00;99.90
5150;DHT22;2593;52.466;13.436;2023-04-21T00:52:35;11.00;99.90
5150;DHT22;2593;52.466;13.436;2023-04-21T00:55:02;10.90;99.90
5150;DHT22;2593;52.466;13.436;2023-04-21T00:57:30;11.00;99.90
5150;DHT22;2593;52.466;13.436;2023-04-21T00:59:56;10.90;99.90
5150;DHT22;2593;52.466;13.436;2023-04-21T01:02:22;10.90;99.90
5150;DHT22;2593;52.466;13.436;2023-04-21T01:04:48;10.80;99.90
5150;DHT22;2593;52.466;13.436;2023-04-21T01:07:14;10.80;99.90
5150;DHT22;2593;52.466;13.436;2023-04-21T01:09:39;10.70;99.90
5150;DHT22;2593;52.466;13.436;2023-04-21T01:12:10;10.70;99.90
5150;DHT22;2593;52.466;13.436;2023-04-21T01:14:37;10.60;99.90
5150;DHT22;2593;52.466;13.436;2023-04-21T01:17:03;10.60;99.90
5150;DHT22;2593;52.466;13.436;2023-04-21T01:19:35;10.60;99.90
5150;DHT22;2593;52.466;13.436;2023-04-21T01:22:04;10.50;99.90
5150;DHT22;2593;52.466;13.436;2023-04-21T01:24:47;10.60;99.90
5150;DHT22;2593;52.466;13.436;2023-04-21T01:27:15;10.50;99.90
5150;DHT22;2593;52.466;13.436;2023-04-21T01:29:44;10.50;99.90
5150;DHT22;2593;52.466;13.436;2023-04-21T01:32:20;10.50;99.90
5150;DHT22;2593;52.466;13.436;2023-04-21T01:34:47;10.50;99.90
5150;DHT22;2593;52.466;13.436;2023-04-21T01:37:23;10.50;99.90
5150;DHT22;2593;52.466;13.436;2023-04-21T01:39:51;10.40;99.90
5150;DHT22;2593;52.466;13.436;2023-04-21T01:42:19;10.50;99.90
5150;DHT22;2593;52.466;13.436;2023-04-21T01:44:45;10.40;99.90
5150;DHT22;2593;52.466;13.436;2023-04-21T01:47:11;10.40;99.90
5150;DHT22;2593;52.466;13.436;2023-04-21T01:49:37;10.40;99.90
5150;DHT22;2593;52.466;13.436;2023-04-21T01:52:03;10.40;99.90
5150;DHT22;2593;52.466;13.436;2023-04-21T01:54:29;10.40;99.90
5150;DHT22;2593;52.466;13.436;2023-04-21T01:56:54;10.40;99.90
5150;DHT22;2593;52.466;13.436;2023-04-21T01:59:21;10.40;99.90
5150;DHT22;2593;52.466;13.436;2023-04-21T02:01:46;10.40;99.90
5150;DHT22;2593;52.466;13.436;2023-04-21T02:04:12;10.40;99.90
5150;DHT22;2593;52.466;13.436;2023-04-21T02:06:37;10.40;99.90
5150;DHT22;2593;52.466;13.436;2023-04-21T02:09:03;10.30;99.90
5150;DHT22;2593;52.466;13.436;2023-04-21T02:11:29;10.30;99.90
5150;DHT22;2593;52.466;13.436;2023-04-21T02:13:55;10.30;99.90
5150;DHT22;2593;52.466;13.436;2023-04-21T02:16:21;10.30;99.90
5150;DHT22;2593;52.466;13.436;2023-04-21T02:18:51;10.30;99.90
5150;DHT22;2593;52.466;13.436;2023-04-21T02:21:18;10.30;99.90
5150;DHT22;2593;52.466;13.436;2023-04-21T02:23:44;10.20;99.90
5150;DHT22;2593;52.466;13.436;2023-04-21T02:26:10;10.30;99.90
5150;DHT22;2593;52.466;13.436;2023-04-21T02:28:36;10.20;99.90
5150;DHT22;2593;52.466;13.436;2023-04-21T02:31:01;10.10;99.90
5150;DHT22;2593;52.466;13.436;2023-04-21T02:33:27;10.10;99.90
5150;DHT22;2593;52.466;13.436;2023-04-21T02:35:52;10.10;99.90
5150;DHT22;2593;52.466;13.436;2023-04-21T02:38:18;10.10;99.90
5150;DHT22;2593;52.466;13.436;2023-04-21T02:40:44;10.10;99.90
5150;DHT22;2593;52.466;13.436;2023-04-21T02:43:09;10.10;99.90
5150;DHT22;2593;52.466;13.436;2023-04-21T02:45:37;10.00;99.90
5150;DHT22;2593;52.466;13.436;2023-04-21T02:48:02;10.00;99.90
5150;DHT22;2593;52.466;13.436;2023-04-21T02:50:28;10.00;99.90
5150;DHT22;2593;52.466;13.436;2023-04-21T02:52:54;9.90;99.90
5150;DHT22;2593;52.466;13.436;2023-04-21T02:55:19;9.90;99.90
5150;DHT22;2593;52.466;13.436;2023-04-21T02:57:47;9.90;99.90
5150;DHT22;2593;52.466;13.436;2023-04-21T03:00:13;9.90;99.90
5150;DHT22;2593;52.466;13.436;2023-04-21T03:02:39;9.90;99.90
5150;DHT22;2593;52.466;13.436;2023-04-21T03:05:05;9.80;99.90
5150;DHT22;2593;52.466;13.436;2023-04-21T03:07:31;9.90;99.90
5150;DHT22;2593;52.466;13.436;2023-04-21T03:09:56;9.70;99.90
5150;DHT22;2593;52.466;13.436;2023-04-21T03:12:22;9.80;99.90
5150;DHT22;2593;52.466;13.436;2023-04-21T03:14:48;9.80;99.90
5150;DHT22;2593;52.466;13.436;2023-04-21T03:17:13;9.80;99.90
5150;DHT22;2593;52.466;13.436;2023-04-21T03:19:39;9.80;99.90
5150;DHT22;2593;52.466;13.436;2023-04-21T03:22:05;9.70;99.90
5150;DHT22;2593;52.466;13.436;2023-04-21T03:24:31;9.70;99.90
5150;DHT22;2593;52.466;13.436;2023-04-21T03:26:56;9.70;99.90
5150;DHT22;2593;52.466;13.436;2023-04-21T03:29:23;9.70;99.90
5150;DHT22;2593;52.466;13.436;2023-04-21T03:31:48;9.70;99.90
5150;DHT22;2593;52.466;13.436;2023-04-21T03:34:14;9.70;99.90
5150;DHT22;2593;52.466;13.436;2023-04-21T03:36:40;9.70;99.90
5150;DHT22;2593;52.466;13.436;2023-04-21T03:39:05;9.70;99.90
5150;DHT22;2593;52.466;13.436;2023-04-21T03:41:34;9.70;99.90
5150;DHT22;2593;52.466;13.436;2023-04-21T03:43:59;9.60;99.90
5150;DHT22;2593;52.466;13.436;2023-04-21T03:46:25;9.60;99.90
5150;DHT22;2593;52.466;13.436;2023-04-21T03:48:51;9.60;99.90
5150;DHT22;2593;52.466;13.436;2023-04-21T03:51:16;9.60;99.90
5150;DHT22;2593;52.466;13.436;2023-04-21T03:53:42;9.60;99.90
5150;DHT22;2593;52.466;13.436;2023-04-21T03:56:08;9.60;99.90
5150;DHT22;2593;52.466;13.436;2023-04-21T03:58:34;9.50;99.90
5150;DHT22;2593;52.466;13.436;2023-04-21T04:01:00;9.50;99.90
5150;DHT22;2593;52.466;13.436;2023-04-21T04:03:25;9.50;99.90
5150;DHT22;2593;52.466;13.436;2023-04-21T04:05:51;9.50;99.90
5150;DHT22;2593;52.466;13.436;2023-04-21T04:08:16;9.50;99.90
5150;DHT22;2593;52.466;13.436;2023-04-21T04:10:43;9.50;99.90
5150;DHT22;2593;52.466;13.436;2023-04-21T04:13:08;9.50;99.90
5150;DHT22;2593;52.466;13.436;2023-04-21T04:15:34;9.40;99.90
5150;DHT22;2593;52.466;13.436;2023-04-21T04:17:59;9.40;99.90
5150;DHT22;2593;52.466;13.436;2023-04-21T04:20:26;9.40;99.90
5150;DHT22;2593;52.466;13.436;2023-04-21T04:22:52;9.50;99.90
5150;DHT22;2593;52.466;13.436;2023-04-21T04:25:17;9.40;99.90
5150;DHT22;2593;52.466;13.436;2023-04-21T04:27:43;9.40;99.90
5150;DHT22;2593;52.466;13.436;2023-04-21T04:30:10;9.40;99.90
5150;DHT22;2593;52.466;13.436;2023-04-21T04:32:36;9.50;99.90
5150;DHT22;2593;52.466;13.436;2023-04-21T04:35:06;9.50;99.90
5150;DHT22;2593;52.466;13.436;2023-04-21T04:37:34;9.40;99.90
5150;DHT22;2593;52.466;13.436;2023-04-21T04:40:00;9.40;99.90
5150;DHT22;2593;52.466;13.436;2023-04-21T04:42:25;9.50;99.90
5150;DHT22;2593;52.466;13.436;2023-04-21T04:44:54;9.50;99.90
5150;DHT22;2593;52.466;13.436;2023-04-21T04:47:21;9.50;99.90
5150;DHT22;2593;52.466;13.436;2023-04-21T04:49:47;9.50;99.90
5150;DHT22;2593;52.466;13.436;2023-04-21T04:52:12;9.50;99.90
5150;DHT22;2593;52.466;13.436;2023-04-21T04:54:38;9.50;99.90
5150;DHT22;2593;52.466;13.436;2023-04-21T04:57:04;9.60;99.90
5150;DHT22;2593;52.466;13.436;2023-04-21T04:59:29;9.60;89.20
5150;DHT22;2593;52.466;13.436;2023-04-21T05:01:55;9.60;75.30
5150;DHT22;2593;52.466;13.436;2023-04-21T05:04:21;9.70;73.40
5150;DHT22;2593;52.466;13.436;2023-04-21T05:06:47;9.70;66.20
5150;DHT22;2593;52.466;13.436;2023-04-21T05:09:13;9.80;46.10
5150;DHT22;2593;52.466;13.436;2023-04-21T05:11:38;9.80;38.00
5150;DHT22;2593;52.466;13.436;2023-04-21T05:14:04;9.90;34.00
5150;DHT22;2593;52.466;13.436;2023-04-21T05:16:29;9.90;33.10
5150;DHT22;2593;52.466;13.436;2023-04-21T05:18:55;9.90;24.00
5150;DHT22;2593;52.466;13.436;2023-04-21T05:21:24;9.90;15.70
5150;DHT22;2593;52.466;13.436;2023-04-21T05:23:54;10.00;6.80
5150;DHT22;2593;52.466;13.436;2023-04-21T05:26:21;10.00;11.40
5150;DHT22;2593;52.466;13.436;2023-04-21T05:28:47;10.20;1.00
5150;DHT22;2593;52.466;13.436;2023-04-21T05:31:12;10.20;1.00
5150;DHT22;2593;52.466;13.436;2023-04-21T05:33:38;10.20;1.00
5150;DHT22;2593;52.466;13.436;2023-04-21T05:36:08;10.30;1.00
5150;DHT22;2593;52.466;13.436;2023-04-21T05:38:34;10.40;1.00
5150;DHT22;2593;52.466;13.436;2023-04-21T05:41:01;10.40;1.00
5150;DHT22;2593;52.466;13.436;2023-04-21T05:43:26;10.40;1.00
5150;DHT22;2593;52.466;13.436;2023-04-21T05:45:52;10.50;1.00
5150;DHT22;2593;52.466;13.436;2023-04-21T05:48:18;10.50;1.00
5150;DHT22;2593;52.466;13.436;2023-04-21T05:50:43;10.60;1.00
5150;DHT22;2593;52.466;13.436;2023-04-21T05:53:09;10.70;1.00
5150;DHT22;2593;52.466;13.436;2023-04-21T05:55:35;10.70;1.00
5150;DHT22;2593;52.466;13.436;2023-04-21T05:58:01;10.80;1.00
5150;DHT22;2593;52.466;13.436;2023-04-21T06:00:27;10.80;1.00
5150;DHT22;2593;52.466;13.436;2023-04-21T06:02:53;10.90;1.00
5150;DHT22;2593;52.466;13.436;2023-04-21T06:05:19;11.00;1.00
5150;DHT22;2593;52.466;13.436;2023-04-21T06:07:44;11.10;1.00
5150;DHT22;2593;52.466;13.436;2023-04-21T06:10:11;11.10;1.00
5150;DHT22;2593;52.466;13.436;2023-04-21T06:12:37;11.20;1.00
5150;DHT22;2593;52.466;13.436;2023-04-21T06:15:03;11.30;1.00
5150;DHT22;2593;52.466;13.436;2023-04-21T06:17:29;11.40;1.00
5150;DHT22;2593;52.466;13.436;2023-04-21T06:19:55;11.50;1.00
5150;DHT22;2593;52.466;13.436;2023-04-21T06:22:24;11.60;1.00
5150;DHT22;2593;52.466;13.436;2023-04-21T06:24:50;11.80;1.00
5150;DHT22;2593;52.466;13.436;2023-04-21T06:27:16;12.10;1.00
5150;DHT22;2593;52.466;13.436;2023-04-21T06:29:42;13.20;1.00
5150;DHT22;2593;52.466;13.436;2023-04-21T06:32:11;14.00;1.00
5150;DHT22;2593;52.466;13.436;2023-04-21T06:34:37;14.90;1.00
5150;DHT22;2593;52.466;13.436;2023-04-21T06:37:03;15.60;1.00
5150;DHT22;2593;52.466;13.436;2023-04-21T06:39:29;16.00;1.00
5150;DHT22;2593;52.466;13.436;2023-04-21T06:41:55;17.00;1.00
5150;DHT22;2593;52.466;13.436;2023-04-21T06:44:22;17.30;1.00
5150;DHT22;2593;52.466;13.436;2023-04-21T06:46:48;17.90;1.00
5150;DHT22;2593;52.466;13.436;2023-04-21T06:49:14;18.10;1.00
5150;DHT22;2593;52.466;13.436;2023-04-21T06:51:39;18.10;1.00
5150;DHT22;2593;52.466;13.436;2023-04-21T06:54:05;18.60;1.00
5150;DHT22;2593;52.466;13.436;2023-04-21T06:56:31;19.00;1.00
5150;DHT22;2593;52.466;13.436;2023-04-21T06:58:57;18.90;1.00
5150;DHT22;2593;52.466;13.436;2023-04-21T07:01:23;19.60;1.00
5150;DHT22;2593;52.466;13.436;2023-04-21T07:03:49;20.70;1.00
5150;DHT22;2593;52.466;13.436;2023-04-21T07:06:15;21.10;1.00
5150;DHT22;2593;52.466;13.436;2023-04-21T07:08:41;21.00;1.00
5150;DHT22;2593;52.466;13.436;2023-04-21T07:11:06;21.30;1.00
5150;DHT22;2593;52.466;13.436;2023-04-21T07:13:32;20.70;1.00
5150;DHT22;2593;52.466;13.436;2023-04-21T07:15:58;21.00;1.00
5150;DHT22;2593;52.466;13.436;2023-04-21T07:18:23;21.10;1.00
5150;DHT22;2593;52.466;13.436;2023-04-21T07:20:49;20.10;1.00
5150;DHT22;2593;52.466;13.436;2023-04-21T07:23:15;20.00;1.00
5150;DHT22;2593;52.466;13.436;2023-04-21T07:25:41;19.30;1.00
5150;DHT22;2593;52.466;13.436;2023-04-21T07:28:06;19.60;1.00
5150;DHT22;2593;52.466;13.436;2023-04-21T07:30:32;19.30;1.00
5150;DHT22;2593;52.466;13.436;2023-04-21T07:32:58;19.00;1.00
5150;DHT22;2593;52.466;13.436;2023-04-21T07:35:24;19.20;1.00
5150;DHT22;2593;52.466;13.436;2023-04-21T07:37:50;19.10;1.00
5150;DHT22;2593;52.466;13.436;2023-04-21T07:40:15;19.40;1.00
5150;DHT22;2593;52.466;13.436;2023-04-21T07:42:41;19.10;1.00
5150;DHT22;2593;52.466;13.436;2023-04-21T07:45:07;19.70;1.00
5150;DHT22;2593;52.466;13.436;2023-04-21T07:47:32;20.50;1.00
5150;DHT22;2593;52.466;13.436;2023-04-21T07:49:58;20.60;1.00
5150;DHT22;2593;52.466;13.436;2023-04-21T07:52:24;20.60;1.00
5150;DHT22;2593;52.466;13.436;2023-04-21T07:54:49;21.20;1.00
5150;DHT22;2593;52.466;13.436;2023-04-21T07:57:15;22.50;1.00
5150;DHT22;2593;52.466;13.436;2023-04-21T07:59:41;23.10;1.00
5150;DHT22;2593;52.466;13.436;2023-04-21T08:02:07;23.80;1.00
5150;DHT22;2593;52.466;13.436;2023-04-21T08:04:33;24.60;1.00
5150;DHT22;2593;52.466;13.436;2023-04-21T08:06:59;24.00;1.00
5150;DHT22;2593;52.466;13.436;2023-04-21T08:09:25;24.10;1.00
5150;DHT22;2593;52.466;13.436;2023-04-21T08:11:51;24.80;1.00
5150;DHT22;2593;52.466;13.436;2023-04-21T08:14:17;24.60;1.00
5150;DHT22;2593;52.466;13.436;2023-04-21T08:16:43;24.70;1.00
5150;DHT22;2593;52.466;13.436;2023-04-21T08:19:09;23.80;1.00
5150;DHT22;2593;52.466;13.436;2023-04-21T08:21:35;24.50;1.00
5150;DHT22;2593;52.466;13.436;2023-04-21T08:24:01;25.60;1.00
5150;DHT22;2593;52.466;13.436;2023-04-21T08:26:26;26.60;1.00
5150;DHT22;2593;52.466;13.436;2023-04-21T08:28:55;26.40;1.00
5150;DHT22;2593;52.466;13.436;2023-04-21T08:31:20;26.70;1.00
5150;DHT22;2593;52.466;13.436;2023-04-21T08:33:46;27.10;1.00
5150;DHT22;2593;52.466;13.436;2023-04-21T08:36:12;27.20;1.00
5150;DHT22;2593;52.466;13.436;2023-04-21T08:38:38;27.10;1.00
5150;DHT22;2593;52.466;13.436;2023-04-21T08:41:04;27.00;1.00
5150;DHT22;2593;52.466;13.436;2023-04-21T08:43:30;27.10;1.00
5150;DHT22;2593;52.466;13.436;2023-04-21T08:45:56;27.90;1.00
5150;DHT22;2593;52.466;13.436;2023-04-21T08:48:23;27.60;1.00
5150;DHT22;2593;52.466;13.436;2023-04-21T08:50:51;27.40;1.00
5150;DHT22;2593;52.466;13.436;2023-04-21T08:53:18;26.60;1.00
5150;DHT22;2593;52.466;13.436;2023-04-21T08:55:47;26.60;1.00
5150;DHT22;2593;52.466;13.436;2023-04-21T08:58:16;25.60;1.00
5150;DHT22;2593;52.466;13.436;2023-04-21T09:00:41;26.60;1.00
5150;DHT22;2593;52.466;13.436;2023-04-21T09:03:07;26.60;1.00
5150;DHT22;2593;52.466;13.436;2023-04-21T09:05:33;26.80;1.00
5150;DHT22;2593;52.466;13.436;2023-04-21T09:08:12;26.90;1.00
5150;DHT22;2593;52.466;13.436;2023-04-21T09:10:49;27.60;1.00
5150;DHT22;2593;52.466;13.436;2023-04-21T09:13:16;28.00;1.00
5150;DHT22;2593;52.466;13.436;2023-04-21T09:15:44;27.50;1.00
5150;DHT22;2593;52.466;13.436;2023-04-21T09:18:18;27.40;1.00
5150;DHT22;2593;52.466;13.436;2023-04-21T09:20:45;28.60;1.00
5150;DHT22;2593;52.466;13.436;2023-04-21T09:23:11;28.80;1.00
5150;DHT22;2593;52.466;13.436;2023-04-21T09:25:39;28.40;1.00
5150;DHT22;2593;52.466;13.436;2023-04-21T09:28:10;28.10;1.00
5150;DHT22;2593;52.466;13.436;2023-04-21T09:30:37;27.70;1.00
5150;DHT22;2593;52.466;13.436;2023-04-21T09:33:02;28.00;1.00
5150;DHT22;2593;52.466;13.436;2023-04-21T09:35:31;27.80;1.00
5150;DHT22;2593;52.466;13.436;2023-04-21T09:37:58;27.40;1.00
5150;DHT22;2593;52.466;13.436;2023-04-21T09:40:25;27.50;1.00
5150;DHT22;2593;52.466;13.436;2023-04-21T09:42:50;27.60;1.00
5150;DHT22;2593;52.466;13.436;2023-04-21T09:45:16;27.30;1.00
5150;DHT22;2593;52.466;13.436;2023-04-21T09:47:43;27.20;1.00
5150;DHT22;2593;52.466;13.436;2023-04-21T09:50:11;28.20;1.00
5150;DHT22;2593;52.466;13.436;2023-04-21T09:52:38;27.70;1.00
5150;DHT22;2593;52.466;13.436;2023-04-21T09:55:10;26.70;1.00
5150;DHT22;2593;52.466;13.436;2023-04-21T09:57:38;25.20;1.00
5150;DHT22;2593;52.466;13.436;2023-04-21T10:00:08;24.40;1.00
5150;DHT22;2593;52.466;13.436;2023-04-21T10:02:44;23.30;1.00
5150;DHT22;2593;52.466;13.436;2023-04-21T10:05:12;22.60;1.00
5150;DHT22;2593;52.466;13.436;2023-04-21T10:07:38;22.70;1.00
5150;DHT22;2593;52.466;13.436;2023-04-21T10:10:07;22.50;1.00
5150;DHT22;2593;52.466;13.436;2023-04-21T10:12:33;22.40;1.00
5150;DHT22;2593;52.466;13.436;2023-04-21T10:15:05;22.20;1.00
5150;DHT22;2593;52.466;13.436;2023-04-21T10:17:49;21.90;1.00
5150;DHT22;2593;52.466;13.436;2023-04-21T10:20:14;21.50;1.00
5150;DHT22;2593;52.466;13.436;2023-04-21T10:22:42;21.40;1.00
5150;DHT22;2593;52.466;13.436;2023-04-21T10:25:08;21.40;1.00
5150;DHT22;2593;52.466;13.436;2023-04-21T10:27:41;21.40;1.00
5150;DHT22;2593;52.466;13.436;2023-04-21T10:30:24;21.50;1.00
5150;DHT22;2593;52.466;13.436;2023-04-21T10:33:03;21.10;1.00
5150;DHT22;2593;52.466;13.436;2023-04-21T10:36:00;21.20;1.00
5150;DHT22;2593;52.466;13.436;2023-04-21T10:38:38;20.90;1.00
5150;DHT22;2593;52.466;13.436;2023-04-21T10:41:30;20.80;1.00
5150;DHT22;2593;52.466;13.436;2023-04-21T10:44:14;20.40;1.00
5150;DHT22;2593;52.466;13.436;2023-04-21T10:46:45;20.50;1.00
5150;DHT22;2593;52.466;13.436;2023-04-21T10:54:22;20.30;1.00
5150;DHT22;2593;52.466;13.436;2023-04-21T10:56:50;20.00;1.00
5150;DHT22;2593;52.466;13.436;2023-04-21T10:59:17;20.00;1.00
5150;DHT22;2593;52.466;13.436;2023-04-21T11:01:43;19.80;1.00
5150;DHT22;2593;52.466;13.436;2023-04-21T11:04:19;19.70;1.00
5150;DHT22;2593;52.466;13.436;2023-04-21T11:09:29;19.80;1.00
5150;DHT22;2593;52.466;13.436;2023-04-21T11:12:01;19.80;1.00
5150;DHT22;2593;52.466;13.436;2023-04-21T11:14:29;19.70;1.00
5150;DHT22;2593;52.466;13.436;2023-04-21T11:16:55;19.80;1.00
5150;DHT22;2593;52.466;13.436;2023-04-21T11:19:20;19.90;1.00
5150;DHT22;2593;52.466;13.436;2023-04-21T11:21:49;19.90;1.00
5150;DHT22;2593;52.466;13.436;2023-04-21T11:24:15;20.00;1.00
5150;DHT22;2593;52.466;13.436;2023-04-21T11:26:41;19.90;1.00
5150;DHT22;2593;52.466;13.436;2023-04-21T11:29:10;20.00;1.00
5150;DHT22;2593;52.466;13.436;2023-04-21T11:31:38;20.00;1.00
5150;DHT22;2593;52.466;13.436;2023-04-21T11:34:05;19.90;1.00
5150;DHT22;2593;52.466;13.436;2023-04-21T11:36:42;19.90;1.00
5150;DHT22;2593;52.466;13.436;2023-04-21T11:39:12;19.80;1.00
5150;DHT22;2593;52.466;13.436;2023-04-21T11:41:41;20.00;1.00
5150;DHT22;2593;52.466;13.436;2023-04-21T11:44:08;20.00;1.00
5150;DHT22;2593;52.466;13.436;2023-04-21T11:46:34;19.90;1.00
5150;DHT22;2593;52.466;13.436;2023-04-21T11:49:03;19.70;1.00
5150;DHT22;2593;52.466;13.436;2023-04-21T11:51:39;19.70;1.00
5150;DHT22;2593;52.466;13.436;2023-04-21T11:54:07;19.80;1.00
5150;DHT22;2593;52.466;13.436;2023-04-21T11:56:37;19.90;1.00
5150;DHT22;2593;52.466;13.436;2023-04-21T12:01:32;20.00;1.00
5150;DHT22;2593;52.466;13.436;2023-04-21T12:03:58;20.00;1.00
5150;DHT22;2593;52.466;13.436;2023-04-21T12:06:25;20.10;1.00
5150;DHT22;2593;52.466;13.436;2023-04-21T12:08:55;20.10;1.00
5150;DHT22;2593;52.466;13.436;2023-04-21T12:11:23;20.10;1.00
5150;DHT22;2593;52.466;13.436;2023-04-21T12:13:49;20.00;1.00
5150;DHT22;2593;52.466;13.436;2023-04-21T12:16:14;19.80;1.00
5150;DHT22;2593;52.466;13.436;2023-04-21T12:18:41;19.90;1.00
5150;DHT22;2593;52.466;13.436;2023-04-21T12:21:07;20.20;1.00
5150;DHT22;2593;52.466;13.436;2023-04-21T12:23:32;20.30;1.00
5150;DHT22;2593;52.466;13.436;2023-04-21T12:25:58;20.20;1.00
5150;DHT22;2593;52.466;13.436;2023-04-21T12:28:25;20.10;1.00
5150;DHT22;2593;52.466;13.436;2023-04-21T12:30:50;20.10;1.00
5150;DHT22;2593;52.466;13.436;2023-04-21T12:33:16;20.20;1.00
5150;DHT22;2593;52.466;13.436;2023-04-21T12:35:42;20.30;1.00
5150;DHT22;2593;52.466;13.436;2023-04-21T12:38:08;20.30;1.00
5150;DHT22;2593;52.466;13.436;2023-04-21T12:40:34;20.30;1.00
5150;DHT22;2593;52.466;13.436;2023-04-21T12:42:59;20.40;1.00
5150;DHT22;2593;52.466;13.436;2023-04-21T12:45:25;20.50;1.00
5150;DHT22;2593;52.466;13.436;2023-04-21T12:47:51;20.40;1.00
5150;DHT22;2593;52.466;13.436;2023-04-21T12:50:16;20.30;1.00
5150;DHT22;2593;52.466;13.436;2023-04-21T12:52:42;19.90;1.00
5150;DHT22;2593;52.466;13.436;2023-04-21T12:55:08;19.90;1.00
5150;DHT22;2593;52.466;13.436;2023-04-21T12:57:34;19.90;1.00
5150;DHT22;2593;52.466;13.436;2023-04-21T13:00:00;20.10;1.00
5150;DHT22;2593;52.466;13.436;2023-04-21T13:02:25;20.10;1.00
5150;DHT22;2593;52.466;13.436;2023-04-21T13:04:51;20.10;1.00
5150;DHT22;2593;52.466;13.436;2023-04-21T13:07:17;20.20;1.00
5150;DHT22;2593;52.466;13.436;2023-04-21T13:09:45;20.20;1.00
5150;DHT22;2593;52.466;13.436;2023-04-21T13:12:11;20.30;1.00
5150;DHT22;2593;52.466;13.436;2023-04-21T13:14:36;20.50;1.00
5150;DHT22;2593;52.466;13.436;2023-04-21T13:17:02;20.40;1.00
5150;DHT22;2593;52.466;13.436;2023-04-21T13:19:28;20.40;1.00
5150;DHT22;2593;52.466;13.436;2023-04-21T13:21:53;20.30;1.00
5150;DHT22;2593;52.466;13.436;2023-04-21T13:24:19;20.20;1.00
5150;DHT22;2593;52.466;13.436;2023-04-21T13:26:45;20.20;1.00
5150;DHT22;2593;52.466;13.436;2023-04-21T13:29:11;20.20;1.00
5150;DHT22;2593;52.466;13.436;2023-04-21T13:31:36;20.30;1.00
5150;DHT22;2593;52.466;13.436;2023-04-21T13:34:02;20.40;1.00
5150;DHT22;2593;52.466;13.436;2023-04-21T13:36:28;20.40;1.00
5150;DHT22;2593;52.466;13.436;2023-04-21T13:38:54;20.50;1.00
5150;DHT22;2593;52.466;13.436;2023-04-21T13:41:20;20.50;1.00
5150;DHT22;2593;52.466;13.436;2023-04-21T13:43:46;20.40;1.00
5150;DHT22;2593;52.466;13.436;2023-04-21T13:46:12;20.30;1.00
5150;DHT22;2593;52.466;13.436;2023-04-21T13:48:39;20.20;1.00
5150;DHT22;2593;52.466;13.436;2023-04-21T13:51:05;20.20;1.00
5150;DHT22;2593;52.466;13.436;2023-04-21T13:53:31;20.10;1.00
5150;DHT22;2593;52.466;13.436;2023-04-21T13:55:56;19.80;1.00
5150;DHT22;2593;52.466;13.436;2023-04-21T13:58:23;19.80;1.00
5150;DHT22;2593;52.466;13.436;2023-04-21T14:00:49;19.90;1.00
5150;DHT22;2593;52.466;13.436;2023-04-21T14:03:15;20.00;1.00
5150;DHT22;2593;52.466;13.436;2023-04-21T14:05:41;20.10;1.00
5150;DHT22;2593;52.466;13.436;2023-04-21T14:08:06;20.10;1.00
5150;DHT22;2593;52.466;13.436;2023-04-21T14:10:32;20.20;1.00
5150;DHT22;2593;52.466;13.436;2023-04-21T14:12:58;20.10;1.00
5150;DHT22;2593;52.466;13.436;2023-04-21T14:15:24;20.20;1.00
5150;DHT22;2593;52.466;13.436;2023-04-21T14:17:51;20.20;1.00
5150;DHT22;2593;52.466;13.436;2023-04-21T14:20:17;20.10;1.00
5150;DHT22;2593;52.466;13.436;2023-04-21T14:22:42;20.10;1.00
5150;DHT22;2593;52.466;13.436;2023-04-21T14:25:08;20.00;1.00
5150;DHT22;2593;52.466;13.436;2023-04-21T14:27:34;19.90;1.00
5150;DHT22;2593;52.466;13.436;2023-04-21T14:30:00;19.80;1.00
5150;DHT22;2593;52.466;13.436;2023-04-21T14:32:25;19.80;1.00
5150;DHT22;2593;52.466;13.436;2023-04-21T14:34:51;19.80;1.00
5150;DHT22;2593;52.466;13.436;2023-04-21T14:37:19;19.80;1.00
5150;DHT22;2593;52.466;13.436;2023-04-21T14:39:44;19.90;1.00
5150;DHT22;2593;52.466;13.436;2023-04-21T14:42:10;19.90;1.00
5150;DHT22;2593;52.466;13.436;2023-04-21T14:44:35;19.90;1.00
5150;DHT22;2593;52.466;13.436;2023-04-21T14:47:01;19.90;1.00
5150;DHT22;2593;52.466;13.436;2023-04-21T14:49:27;20.00;1.00
5150;DHT22;2593;52.466;13.436;2023-04-21T14:51:53;20.00;1.00
5150;DHT22;2593;52.466;13.436;2023-04-21T14:54:19;19.80;1.00
5150;DHT22;2593;52.466;13.436;2023-04-21T14:56:44;19.60;1.00
5150;DHT22;2593;52.466;13.436;2023-04-21T14:59:10;19.60;1.00
5150;DHT22;2593;52.466;13.436;2023-04-21T15:01:36;19.60;1.00
5150;DHT22;2593;52.466;13.436;2023-04-21T15:04:02;19.50;1.00
5150;DHT22;2593;52.466;13.436;2023-04-21T15:06:27;19.70;1.00
5150;DHT22;2593;52.466;13.436;2023-04-21T15:08:54;19.70;1.00
5150;DHT22;2593;52.466;13.436;2023-04-21T15:11:19;19.60;1.00
5150;DHT22;2593;52.466;13.436;2023-04-21T15:13:45;19.60;1.00
5150;DHT22;2593;52.466;13.436;2023-04-21T15:16:11;19.60;1.00
5150;DHT22;2593;52.466;13.436;2023-04-21T15:18:36;19.70;1.00
5150;DHT22;2593;52.466;13.436;2023-04-21T15:21:02;19.70;1.00
5150;DHT22;2593;52.466;13.436;2023-04-21T15:23:28;19.80;1.00
5150;DHT22;2593;52.466;13.436;2023-04-21T15:25:54;19.70;1.00
5150;DHT22;2593;52.466;13.436;2023-04-21T15:28:20;19.50;1.00
5150;DHT22;2593;52.466;13.436;2023-04-21T15:30:46;19.60;1.00
5150;DHT22;2593;52.466;13.436;2023-04-21T15:33:12;19.70;1.00
5150;DHT22;2593;52.466;13.436;2023-04-21T15:35:37;19.60;1.00
5150;DHT22;2593;52.466;13.436;2023-04-21T15:38:03;19.60;1.00
5150;DHT22;2593;52.466;13.436;2023-04-21T15:40:30;19.50;1.00
5150;DHT22;2593;52.466;13.436;2023-04-21T15:42:56;19.60;1.00
5150;DHT22;2593;52.466;13.436;2023-04-21T15:45:21;19.60;1.00
5150;DHT22;2593;52.466;13.436;2023-04-21T15:47:47;19.50;1.00
5150;DHT22;2593;52.466;13.436;2023-04-21T15:50:12;19.50;1.00
5150;DHT22;2593;52.466;13.436;2023-04-21T15:52:38;19.60;1.00
5150;DHT22;2593;52.466;13.436;2023-04-21T15:55:09;19.60;1.00
5150;DHT22;2593;52.466;13.436;2023-04-21T15:57:35;19.50;1.00
5150;DHT22;2593;52.466;13.436;2023-04-21T16:00:01;19.50;1.00
5150;DHT22;2593;52.466;13.436;2023-04-21T16:02:27;19.50;1.00
5150;DHT22;2593;52.466;13.436;2023-04-21T16:04:52;19.50;1.00
5150;DHT22;2593;52.466;13.436;2023-04-21T16:07:18;19.30;1.00